createdAt,value
2018-08-13T00:00:52.435Z,32.67
2018-08-13T00:03:18.377Z,32.00
2018-08-13T00:05:44.336Z,33.83
2018-08-13T00:08:10.284Z,31.37
2018-08-13T00:10:36.239Z,33.08
2018-08-13T00:13:02.190Z,31.98
2018-08-13T00:15:28.185Z,32.46
2018-08-13T00:17:54.113Z,32.85
2018-08-13T00:20:20.075Z,32.79
2018-08-13T00:22:46.033Z,31.84
2018-08-13T00:25:12.014Z,32.38
2018-08-13T00:27:38.045Z,31.91
2018-08-13T00:30:04.021Z,32.25
2018-08-13T00:32:29.949Z,32.21
2018-08-13T00:34:55.926Z,32.42
2018-08-13T00:37:21.862Z,31.99
2018-08-13T00:39:47.825Z,31.73
2018-08-13T00:42:13.763Z,33.72
2018-08-13T00:44:39.718Z,32.64
2018-08-13T00:47:05.709Z,32.61
2018-08-13T00:49:31.689Z,34.11
2018-08-13T00:51:57.640Z,35.99
2018-08-13T00:54:23.605Z,33.31
2018-08-13T00:56:49.571Z,32.42
2018-08-13T00:59:15.529Z,32.21
2018-08-13T01:01:41.755Z,32.48
2018-08-13T01:04:07.710Z,32.48
2018-08-13T01:06:33.669Z,31.43
2018-08-13T01:08:59.631Z,32.64
2018-08-13T01:11:25.591Z,38.58
2018-08-13T01:13:51.559Z,34.68
2018-08-13T01:16:17.547Z,33.72
2018-08-13T01:18:43.545Z,32.76
2018-08-13T01:21:09.506Z,33.16
2018-08-13T01:23:35.470Z,32.84
2018-08-13T01:26:01.428Z,32.92
2018-08-13T01:28:27.377Z,33.84
2018-08-13T01:30:53.316Z,34.82
2018-08-13T01:33:19.244Z,36.65
2018-08-13T01:35:45.214Z,33.36
2018-08-13T01:38:11.179Z,33.59
2018-08-13T01:40:37.137Z,33.64
2018-08-13T01:43:03.070Z,32.42
2018-08-13T01:45:29.017Z,31.99
2018-08-13T01:47:54.970Z,34.05
2018-08-13T01:50:20.936Z,40.08
2018-08-13T01:52:46.888Z,34.73
2018-08-13T01:55:12.842Z,34.17
2018-08-13T01:57:38.792Z,33.94
2018-08-13T02:00:04.770Z,34.24
2018-08-13T02:02:30.728Z,33.92
2018-08-13T02:04:56.690Z,33.73
2018-08-13T02:07:22.624Z,33.42
2018-08-13T02:09:48.575Z,34.61
2018-08-13T02:12:14.513Z,33.98
2018-08-13T02:14:40.477Z,34.27
2018-08-13T02:17:06.414Z,32.66
2018-08-13T02:19:32.377Z,32.52
2018-08-13T02:21:58.313Z,32.92
2018-08-13T02:24:24.243Z,32.03
2018-08-13T02:26:50.249Z,32.93
2018-08-13T02:29:16.236Z,33.77
2018-08-13T02:31:42.189Z,33.49
2018-08-13T02:34:08.139Z,33.21
2018-08-13T02:36:34.080Z,33.82
2018-08-13T02:39:00.098Z,33.13
2018-08-13T02:41:26.074Z,33.87
2018-08-13T02:43:52.085Z,33.79
2018-08-13T02:46:18.052Z,33.67
2018-08-13T02:48:43.998Z,33.50
2018-08-13T02:51:09.981Z,34.09
2018-08-13T02:53:35.938Z,34.78
2018-08-13T02:56:01.926Z,33.72
2018-08-13T02:58:27.911Z,34.19
2018-08-13T03:00:53.855Z,34.57
2018-08-13T03:03:19.813Z,34.57
2018-08-13T03:05:45.786Z,34.33
2018-08-13T03:08:11.747Z,35.19
2018-08-13T03:10:37.704Z,34.98
2018-08-13T03:13:03.680Z,34.79
2018-08-13T03:15:29.631Z,35.80
2018-08-13T03:17:55.594Z,35.55
2018-08-13T03:20:21.536Z,35.19
2018-08-13T03:25:13.228Z,34.56
2018-08-13T03:27:39.189Z,34.29
2018-08-13T03:30:05.155Z,34.28
2018-08-13T03:32:31.131Z,35.89
2018-08-13T03:34:57.125Z,34.39
2018-08-13T03:37:23.091Z,34.04
2018-08-13T03:39:49.037Z,33.31
2018-08-13T03:42:15.072Z,34.29
2018-08-13T03:44:41.032Z,34.37
2018-08-13T03:47:07.005Z,35.73
2018-08-13T03:49:32.966Z,34.14
2018-08-13T03:51:58.944Z,34.73
2018-08-13T03:54:24.935Z,33.68
2018-08-13T03:56:50.887Z,34.08
2018-08-13T03:59:16.871Z,34.20
2018-08-13T04:01:42.823Z,35.17
2018-08-13T04:04:08.774Z,34.25
2018-08-13T04:06:34.751Z,33.25
2018-08-13T04:09:00.743Z,33.59
2018-08-13T04:11:26.733Z,33.65
2018-08-13T04:13:52.662Z,33.43
2018-08-13T04:16:18.592Z,34.14
2018-08-13T04:18:44.526Z,34.67
2018-08-13T04:21:10.484Z,33.46
2018-08-13T04:23:36.432Z,34.18
2018-08-13T04:26:02.374Z,33.71
2018-08-13T04:28:28.323Z,34.52
2018-08-13T04:30:54.343Z,34.81
2018-08-13T04:33:20.300Z,33.87
2018-08-13T04:35:46.228Z,33.61
2018-08-13T04:38:12.171Z,33.44
2018-08-13T04:40:38.120Z,33.86
2018-08-13T04:43:04.089Z,32.62
2018-08-13T04:45:30.043Z,33.33
2018-08-13T04:47:56.023Z,33.10
2018-08-13T04:50:21.980Z,33.11
2018-08-13T04:52:47.952Z,32.55
2018-08-13T04:55:13.916Z,33.06
2018-08-13T04:57:39.897Z,32.07
2018-08-13T05:00:05.879Z,32.24
2018-08-13T05:02:31.849Z,31.78
2018-08-13T05:04:57.806Z,31.83
2018-08-13T05:07:23.776Z,34.03
2018-08-13T05:09:49.743Z,31.27
2018-08-13T05:12:15.697Z,31.58
2018-08-13T05:14:41.673Z,31.04
2018-08-13T05:17:07.632Z,31.61
2018-08-13T05:19:33.577Z,31.66
2018-08-13T05:21:59.502Z,31.72
2018-08-13T05:24:25.468Z,32.16
2018-08-13T05:26:51.421Z,31.08
2018-08-13T05:29:17.435Z,34.04
2018-08-13T05:31:43.395Z,30.89
2018-08-13T05:34:09.374Z,34.89
2018-08-13T05:36:35.316Z,31.31
2018-08-13T05:39:01.289Z,34.16
2018-08-13T05:41:27.242Z,30.12
2018-08-13T05:43:53.191Z,29.44
2018-08-13T05:46:19.166Z,31.68
2018-08-13T05:48:45.139Z,29.78
2018-08-13T05:51:11.104Z,32.92
2018-08-13T05:53:37.056Z,31.80
2018-08-13T05:56:03.100Z,29.90
2018-08-13T05:58:29.071Z,30.19
2018-08-13T06:00:55.014Z,31.22
2018-08-13T06:03:21.002Z,29.51
2018-08-13T06:05:46.958Z,30.76
2018-08-13T06:08:12.900Z,30.95
2018-08-13T06:10:38.863Z,29.89
2018-08-13T06:13:04.823Z,33.27
2018-08-13T06:15:30.811Z,28.38
2018-08-13T06:17:56.783Z,29.97
2018-08-13T06:20:22.718Z,29.12
2018-08-13T06:22:48.652Z,28.95
2018-08-13T06:25:14.652Z,31.05
2018-08-13T06:27:40.619Z,28.99
2018-08-13T06:30:06.637Z,31.73
2018-08-13T06:32:32.563Z,32.56
2018-08-13T06:34:58.530Z,29.54
2018-08-13T06:37:24.590Z,31.64
2018-08-13T06:39:50.581Z,31.82
2018-08-13T06:42:16.543Z,29.13
2018-08-13T06:44:42.483Z,32.92
2018-08-13T06:47:08.760Z,33.59
2018-08-13T06:49:34.712Z,28.50
2018-08-13T06:52:00.710Z,29.43
2018-08-13T06:54:26.670Z,31.53
2018-08-13T06:56:52.660Z,33.84
2018-08-13T06:59:18.622Z,33.31
2018-08-13T07:01:44.581Z,30.76
2018-08-13T07:04:10.678Z,34.41
2018-08-13T07:06:36.659Z,37.01
2018-08-13T07:09:02.679Z,33.26
2018-08-13T07:11:28.659Z,35.57
2018-08-13T07:13:54.648Z,37.40
2018-08-13T07:16:20.589Z,29.61
2018-08-13T07:18:46.561Z,32.23
2018-08-13T07:21:12.533Z,30.34
2018-08-13T07:23:38.530Z,32.92
2018-08-13T07:26:04.473Z,33.09
2018-08-13T07:28:30.456Z,34.95
2018-08-13T07:30:56.408Z,35.71
2018-08-13T07:33:22.386Z,35.31
2018-08-13T07:35:48.332Z,33.61
2018-08-13T07:38:14.284Z,32.69
2018-08-13T07:40:40.227Z,31.63
2018-08-13T07:43:06.187Z,34.53
2018-08-13T07:45:32.198Z,35.07
2018-08-13T07:47:58.115Z,35.33
2018-08-13T07:50:24.153Z,34.82
2018-08-13T07:52:50.110Z,34.00
2018-08-13T07:55:16.075Z,35.43
2018-08-13T07:57:42.016Z,35.56
2018-08-13T08:00:08.133Z,33.84
2018-08-13T08:02:33.949Z,32.42
2018-08-13T08:04:59.917Z,35.77
2018-08-13T08:07:25.848Z,34.77
2018-08-13T08:09:51.809Z,33.94
2018-08-13T08:12:17.772Z,32.15
2018-08-13T08:14:43.774Z,33.47
2018-08-13T08:17:09.732Z,30.69
2018-08-13T08:19:35.702Z,33.08
2018-08-13T08:22:01.671Z,35.20
2018-08-13T08:24:27.618Z,33.31
2018-08-13T08:26:53.553Z,35.27
2018-08-13T08:29:19.562Z,35.47
2018-08-13T08:31:45.563Z,35.32
2018-08-13T08:34:11.503Z,36.27
2018-08-13T08:36:37.531Z,35.04
2018-08-13T08:39:03.531Z,33.40
2018-08-13T08:41:29.523Z,33.35
2018-08-13T08:43:55.535Z,33.98
2018-08-13T08:46:21.517Z,29.53
2018-08-13T08:48:47.646Z,29.73
2018-08-13T08:51:13.672Z,30.55
2018-08-13T08:53:39.673Z,33.15
2018-08-13T08:56:05.669Z,30.90
2018-08-13T08:58:31.676Z,31.09
2018-08-13T09:00:57.660Z,30.74
2018-08-13T09:03:23.645Z,31.09
2018-08-13T09:05:49.636Z,31.45
2018-08-13T09:08:15.789Z,32.12
2018-08-13T09:10:41.744Z,31.46
2018-08-13T09:13:07.760Z,32.91
2018-08-13T09:15:33.747Z,31.04
2018-08-13T09:17:59.769Z,31.45
2018-08-13T09:20:25.857Z,33.16
2018-08-13T09:22:51.848Z,31.84
2018-08-13T09:25:17.881Z,32.95
2018-08-13T09:27:43.844Z,34.07
2018-08-13T09:30:09.818Z,34.14
2018-08-13T09:32:35.871Z,34.18
2018-08-13T09:35:01.911Z,33.78
2018-08-13T09:37:27.875Z,34.08
2018-08-13T09:39:53.859Z,34.13
2018-08-13T09:42:19.847Z,30.50
2018-08-13T09:44:45.830Z,33.42
2018-08-13T09:47:11.819Z,33.13
2018-08-13T09:49:37.811Z,34.14
2018-08-13T09:52:03.805Z,34.65
2018-08-13T09:54:29.768Z,33.72
2018-08-13T09:56:55.731Z,33.53
2018-08-13T09:59:21.745Z,29.79
2018-08-13T10:01:47.725Z,33.16
2018-08-13T10:04:13.718Z,31.52
2018-08-13T10:06:39.692Z,31.25
2018-08-13T10:09:05.646Z,30.14
2018-08-13T10:11:31.590Z,29.52
2018-08-13T10:13:57.532Z,30.08
2018-08-13T10:16:23.505Z,29.27
2018-08-13T10:18:49.458Z,31.78
2018-08-13T10:21:15.398Z,32.52
2018-08-13T10:23:41.352Z,28.36
2018-08-13T10:26:07.308Z,29.98
2018-08-13T10:28:33.262Z,30.71
2018-08-13T10:30:59.225Z,31.88
2018-08-13T10:33:25.179Z,31.91
2018-08-13T10:35:51.134Z,31.84
2018-08-13T10:38:17.101Z,32.10
2018-08-13T10:40:43.019Z,33.19
2018-08-13T10:43:08.953Z,33.43
2018-08-13T10:45:34.907Z,32.75
2018-08-13T10:48:00.872Z,33.70
2018-08-13T10:50:26.837Z,34.50
2018-08-13T10:52:52.810Z,34.14
2018-08-13T10:55:18.767Z,34.08
2018-08-13T10:57:44.710Z,33.38
2018-08-13T11:00:10.729Z,33.41
2018-08-13T11:02:36.725Z,33.51
2018-08-13T11:05:02.749Z,31.49
2018-08-13T11:07:28.756Z,32.62
2018-08-13T11:09:54.736Z,32.69
2018-08-13T11:12:20.698Z,33.06
2018-08-13T11:14:46.723Z,32.66
2018-08-13T11:17:12.755Z,32.20
2018-08-13T11:19:38.740Z,32.87
2018-08-13T11:22:04.737Z,33.27
2018-08-13T11:24:30.704Z,31.71
2018-08-13T11:26:56.708Z,32.92
2018-08-13T11:29:22.741Z,31.41
2018-08-13T11:31:48.751Z,33.22
2018-08-13T11:34:14.763Z,33.03
2018-08-13T11:36:40.781Z,31.94
2018-08-13T11:39:06.776Z,33.45
2018-08-13T11:41:32.808Z,32.98
2018-08-13T11:43:58.797Z,32.73
2018-08-13T11:46:24.811Z,27.28
2018-08-13T11:48:50.763Z,32.06
2018-08-13T11:51:16.737Z,32.54
2018-08-13T11:53:42.721Z,29.64
2018-08-13T11:56:08.739Z,32.08
2018-08-13T11:58:34.723Z,33.14
2018-08-13T12:01:00.768Z,33.06
2018-08-13T12:03:26.745Z,33.36
2018-08-13T12:05:52.750Z,33.41
2018-08-13T12:08:18.749Z,30.21
2018-08-13T12:10:44.772Z,32.82
2018-08-13T12:13:10.765Z,27.86
2018-08-13T12:15:36.751Z,31.29
2018-08-13T12:18:02.713Z,33.00
2018-08-13T12:20:28.663Z,32.11
2018-08-13T12:22:54.644Z,29.98
2018-08-13T12:25:20.582Z,31.99
2018-08-13T12:27:46.528Z,31.34
2018-08-13T12:30:12.480Z,28.54
2018-08-13T12:32:38.440Z,32.40
2018-08-13T12:35:04.375Z,32.28
2018-08-13T12:37:30.409Z,32.11
2018-08-13T12:39:56.379Z,31.92
2018-08-13T12:42:22.333Z,31.62
2018-08-13T12:44:48.271Z,30.37
2018-08-13T12:47:14.219Z,33.15
2018-08-13T12:49:40.203Z,34.44
2018-08-13T12:52:06.165Z,32.73
2018-08-13T12:54:32.121Z,32.58
2018-08-13T12:56:58.101Z,32.17
2018-08-13T12:59:24.065Z,32.32
2018-08-13T13:01:50.123Z,29.40
2018-08-13T13:04:16.111Z,31.37
2018-08-13T13:06:42.055Z,32.11
2018-08-13T13:09:08.023Z,32.26
2018-08-13T13:11:33.985Z,31.63
2018-08-13T13:13:59.979Z,32.64
2018-08-13T13:16:25.935Z,31.41
2018-08-13T13:18:51.921Z,31.48
2018-08-13T13:21:17.894Z,30.56
2018-08-13T13:23:43.828Z,28.48
2018-08-13T13:26:09.757Z,31.27
2018-08-13T13:28:35.731Z,30.28
2018-08-13T13:31:01.712Z,28.99
2018-08-13T13:33:27.689Z,28.69
2018-08-13T13:35:53.666Z,30.47
2018-08-13T13:38:19.634Z,28.88
2018-08-13T13:40:45.573Z,30.48
2018-08-13T13:43:11.546Z,29.94
2018-08-13T13:45:37.509Z,30.86
2018-08-13T13:48:03.469Z,30.91
2018-08-13T13:50:29.449Z,31.05
2018-08-13T13:52:55.396Z,31.56
2018-08-13T13:55:21.398Z,32.21
2018-08-13T13:57:47.384Z,32.11
2018-08-13T14:00:13.364Z,32.31
2018-08-13T14:02:39.329Z,32.19
2018-08-13T14:05:05.287Z,32.06
2018-08-13T14:07:31.247Z,33.83
2018-08-13T14:09:57.240Z,33.50
2018-08-13T14:12:23.173Z,31.86
2018-08-13T14:14:49.155Z,27.58
2018-08-13T14:17:15.115Z,27.52
2018-08-13T14:19:41.093Z,27.91
2018-08-13T14:22:07.054Z,27.55
2018-08-13T14:24:33.006Z,27.61
2018-08-13T14:26:58.965Z,26.87
2018-08-13T14:29:24.933Z,27.11
2018-08-13T14:31:50.883Z,28.15
2018-08-13T14:34:16.941Z,26.62
2018-08-13T14:36:42.922Z,28.15
2018-08-13T14:39:08.870Z,26.63
2018-08-13T14:41:34.820Z,26.11
2018-08-13T14:44:00.838Z,26.61
2018-08-13T14:46:26.840Z,27.39
2018-08-13T14:48:52.896Z,26.22
2018-08-13T14:51:18.918Z,27.02
2018-08-13T14:53:44.890Z,27.20
2018-08-13T14:56:10.856Z,27.47
2018-08-13T14:58:36.840Z,27.02
2018-08-13T15:01:02.801Z,27.49
2018-08-13T15:03:28.762Z,27.58
2018-08-13T15:05:54.705Z,27.68
2018-08-13T15:08:20.681Z,27.60
2018-08-13T15:10:46.636Z,27.80
2018-08-13T15:13:12.606Z,28.17
2018-08-13T15:15:38.609Z,28.11
2018-08-13T15:18:04.605Z,28.23
2018-08-13T15:20:30.564Z,29.53
2018-08-13T15:22:56.522Z,29.67
2018-08-13T15:25:22.465Z,30.91
2018-08-13T15:27:48.689Z,31.26
2018-08-13T15:30:14.594Z,31.93
2018-08-13T15:32:40.597Z,32.52
2018-08-13T15:35:06.579Z,33.87
2018-08-13T15:37:32.588Z,31.15
2018-08-13T15:40:01.861Z,31.99
2018-08-13T15:42:27.838Z,32.91
2018-08-13T15:44:53.869Z,31.91
2018-08-13T15:47:19.841Z,34.11
2018-08-13T15:49:45.815Z,31.43
2018-08-13T15:52:11.777Z,34.58
2018-08-13T15:54:38.697Z,33.46
2018-08-13T15:57:04.676Z,35.97
2018-08-13T15:59:30.630Z,37.02
2018-08-13T16:01:56.590Z,32.45
2018-08-13T16:04:22.590Z,33.88
2018-08-13T16:06:48.530Z,35.69
2018-08-13T16:09:14.468Z,36.19
2018-08-13T16:11:40.447Z,36.27
2018-08-13T16:14:06.433Z,36.80
2018-08-13T16:16:32.382Z,37.56
2018-08-13T16:18:58.317Z,35.30
2018-08-13T16:21:24.251Z,35.14
2018-08-13T16:23:50.189Z,34.83
2018-08-13T16:26:16.164Z,35.76
2018-08-13T16:28:42.117Z,36.48
2018-08-13T16:31:08.076Z,34.42
2018-08-13T16:33:34.051Z,36.44
2018-08-13T16:36:00.010Z,37.23
2018-08-13T16:38:25.966Z,36.05
2018-08-13T16:40:51.932Z,36.19
2018-08-13T16:43:17.916Z,37.14
2018-08-13T16:45:43.855Z,36.22
2018-08-13T16:48:09.839Z,36.19
2018-08-13T16:50:36.979Z,37.21
2018-08-13T16:53:02.928Z,35.92
2018-08-13T16:55:28.957Z,36.89
2018-08-13T16:57:54.840Z,36.41
2018-08-13T17:00:20.794Z,35.62
2018-08-13T17:02:46.754Z,36.73
2018-08-13T17:05:12.691Z,36.53
2018-08-13T17:07:38.695Z,36.54
2018-08-13T17:10:04.669Z,37.14
2018-08-13T17:12:30.718Z,37.33
2018-08-13T17:14:56.673Z,36.52
2018-08-13T17:17:22.637Z,35.70
2018-08-13T17:19:48.574Z,36.40
2018-08-13T17:22:14.537Z,35.10
2018-08-13T17:24:40.577Z,36.19
2018-08-13T17:27:06.533Z,36.02
2018-08-13T17:29:32.490Z,35.96
2018-08-13T17:31:58.450Z,35.44
2018-08-13T17:34:24.756Z,34.58
2018-08-13T17:36:50.722Z,33.87
2018-08-13T17:39:16.784Z,34.57
2018-08-13T17:41:42.773Z,36.12
2018-08-13T17:44:08.729Z,35.40
2018-08-13T17:46:34.782Z,35.34
2018-08-13T17:49:00.752Z,34.71
2018-08-13T17:51:26.718Z,35.71
2018-08-13T17:53:52.693Z,34.93
2018-08-13T17:56:18.681Z,35.99
2018-08-13T17:58:44.654Z,36.58
2018-08-13T18:01:10.620Z,35.83
2018-08-13T18:03:36.586Z,36.92
2018-08-13T18:06:02.563Z,35.85
2018-08-13T18:08:28.517Z,35.79
2018-08-13T18:10:54.469Z,36.25
2018-08-13T18:13:20.418Z,36.16
2018-08-13T18:15:46.375Z,35.78
2018-08-13T18:18:12.340Z,35.07
2018-08-13T18:20:38.362Z,35.67
2018-08-13T18:23:06.345Z,36.04
2018-08-13T18:25:32.315Z,35.51
2018-08-13T18:27:58.276Z,36.49
2018-08-13T18:30:24.239Z,36.21
2018-08-13T18:32:50.208Z,34.99
2018-08-13T18:35:16.182Z,35.12
2018-08-13T18:37:42.122Z,35.50
2018-08-13T18:40:08.114Z,34.81
2018-08-13T18:42:34.128Z,35.31
2018-08-13T18:45:00.176Z,36.34
2018-08-13T18:47:26.198Z,35.94
2018-08-13T18:49:52.196Z,35.36
2018-08-13T18:52:18.261Z,35.12
2018-08-13T18:54:44.267Z,35.72
2018-08-13T18:57:10.262Z,35.75
2018-08-13T18:59:36.237Z,35.65
2018-08-13T19:02:02.220Z,36.33
2018-08-13T19:04:28.264Z,37.37
2018-08-13T19:06:54.239Z,36.02
2018-08-13T19:09:20.224Z,36.70
2018-08-13T19:11:46.229Z,37.77
2018-08-13T19:14:12.136Z,36.94
2018-08-13T19:16:38.180Z,37.51
2018-08-13T19:19:04.186Z,38.27
2018-08-13T19:21:30.203Z,37.02
2018-08-13T19:23:56.190Z,37.93
2018-08-13T19:26:22.209Z,38.23
2018-08-13T19:28:48.310Z,37.65
2018-08-13T19:31:14.376Z,38.01
2018-08-13T19:33:40.327Z,37.78
2018-08-13T19:36:06.268Z,37.42
2018-08-13T19:38:32.273Z,38.14
2018-08-13T19:40:58.243Z,37.45
2018-08-13T19:43:24.200Z,37.12
2018-08-13T19:45:50.241Z,37.57
2018-08-13T19:48:16.234Z,37.36
2018-08-13T19:50:42.186Z,37.70
2018-08-13T19:53:08.242Z,38.91
2018-08-13T19:55:34.195Z,38.17
2018-08-13T19:58:00.183Z,37.60
2018-08-13T20:00:26.209Z,38.47
2018-08-13T20:02:52.224Z,37.90
2018-08-13T20:05:18.226Z,38.82
2018-08-13T20:07:44.190Z,38.62
2018-08-13T20:10:10.150Z,39.11
2018-08-13T20:12:36.128Z,39.93
2018-08-13T20:15:02.097Z,39.29
2018-08-13T20:17:28.086Z,39.91
2018-08-13T20:19:54.046Z,39.42
2018-08-13T20:22:19.997Z,39.87
2018-08-13T20:24:45.965Z,39.57
2018-08-13T20:27:11.899Z,39.72
2018-08-13T20:29:38.053Z,38.51
2018-08-13T20:32:04.000Z,38.85
2018-08-13T20:34:29.966Z,39.42
2018-08-13T20:36:55.984Z,38.85
2018-08-13T20:39:21.933Z,38.84
2018-08-13T20:41:47.985Z,38.90
2018-08-13T20:44:14.009Z,39.13
2018-08-13T20:46:39.981Z,39.96
2018-08-13T20:49:05.938Z,40.40
2018-08-13T20:51:32.002Z,40.97
2018-08-13T20:53:57.981Z,40.46
2018-08-13T20:56:23.957Z,38.99
2018-08-13T20:58:49.927Z,39.72
2018-08-13T21:01:17.112Z,40.22
2018-08-13T21:03:43.186Z,40.16
2018-08-13T21:06:09.168Z,39.96
2018-08-13T21:08:35.162Z,39.52
2018-08-13T21:11:01.136Z,39.43
2018-08-13T21:13:27.089Z,39.60
2018-08-13T21:15:53.110Z,40.31
2018-08-13T21:18:19.067Z,39.39
2018-08-13T21:20:45.092Z,39.88
2018-08-13T21:23:11.094Z,41.00
2018-08-13T21:25:37.081Z,40.71
2018-08-13T21:28:03.021Z,40.97
2018-08-13T21:30:29.017Z,41.48
2018-08-13T21:32:54.972Z,41.49
2018-08-13T21:35:20.952Z,41.91
2018-08-13T21:37:46.932Z,40.82
2018-08-13T21:40:12.925Z,40.62
2018-08-13T21:42:38.970Z,41.76
2018-08-13T21:45:05.819Z,41.55
2018-08-13T21:47:31.788Z,41.66
2018-08-13T21:49:57.748Z,41.91
2018-08-13T21:52:23.728Z,41.90
2018-08-13T21:54:49.647Z,41.43
2018-08-13T21:57:15.634Z,42.20
2018-08-13T21:59:41.588Z,41.19
2018-08-13T22:02:07.684Z,41.75
2018-08-13T22:04:33.578Z,40.78
2018-08-13T22:06:59.528Z,41.51
2018-08-13T22:09:25.474Z,42.02
2018-08-13T22:11:51.461Z,41.15
2018-08-13T22:14:17.421Z,41.06
2018-08-13T22:16:43.449Z,40.91
2018-08-13T22:19:09.436Z,41.10
2018-08-13T22:21:35.464Z,40.74
2018-08-13T22:24:01.442Z,41.63
2018-08-13T22:26:27.450Z,41.19
2018-08-13T22:28:53.383Z,41.03
2018-08-13T22:31:19.338Z,41.55
2018-08-13T22:33:45.280Z,41.02
2018-08-13T22:36:11.308Z,41.11
2018-08-13T22:38:37.246Z,40.82
2018-08-13T22:41:03.192Z,41.49
2018-08-13T22:43:29.157Z,40.99
2018-08-13T22:45:55.131Z,41.85
2018-08-13T22:48:21.115Z,40.97
2018-08-13T22:50:47.074Z,41.61
2018-08-13T22:53:13.056Z,41.02
2018-08-13T22:55:38.981Z,41.66
2018-08-13T22:58:04.925Z,41.26
2018-08-13T23:00:30.863Z,41.98
2018-08-13T23:02:56.791Z,42.19
2018-08-13T23:05:22.745Z,42.55
2018-08-13T23:07:48.680Z,42.83
2018-08-13T23:10:14.615Z,42.36
2018-08-13T23:12:40.563Z,42.04
2018-08-13T23:15:06.515Z,42.25
2018-08-13T23:17:32.518Z,42.08
2018-08-13T23:19:58.465Z,42.78
2018-08-13T23:22:24.436Z,41.75
2018-08-13T23:24:50.389Z,41.73
2018-08-13T23:27:16.346Z,42.25
2018-08-13T23:29:42.321Z,42.81
2018-08-13T23:32:08.272Z,42.81
2018-08-13T23:34:34.200Z,43.46
2018-08-13T23:37:00.192Z,43.09
2018-08-13T23:39:26.131Z,43.41
2018-08-13T23:41:52.119Z,43.39
2018-08-13T23:44:18.076Z,42.66
2018-08-13T23:46:44.017Z,43.60
2018-08-13T23:49:09.981Z,43.37
2018-08-13T23:51:35.939Z,42.92
2018-08-13T23:54:01.896Z,42.90
2018-08-13T23:56:27.868Z,42.92
2018-08-13T23:58:53.796Z,42.42
